createdAt,value
2019-05-23T00:01:22.365Z,23.57
2019-05-23T00:04:12.058Z,24.10
2019-05-23T00:06:45.543Z,22.35
2019-05-23T00:09:17.060Z,14.70
2019-05-23T00:11:50.391Z,16.77
2019-05-23T00:14:34.430Z,14.53
2019-05-23T00:17:07.743Z,19.98
2019-05-23T00:19:40.030Z,13.65
2019-05-23T00:22:13.177Z,13.22
2019-05-23T00:24:44.690Z,14.75
2019-05-23T00:27:18.050Z,13.40
2019-05-23T00:29:50.483Z,19.67
2019-05-23T00:32:35.690Z,18.52
2019-05-23T00:35:12.879Z,11.22
2019-05-23T00:40:17.334Z,12.50
2019-05-23T00:42:49.290Z,14.45
2019-05-23T00:45:23.252Z,11.57
2019-05-23T00:47:55.202Z,16.67
2019-05-23T00:50:27.590Z,10.32
2019-05-23T00:52:59.729Z,11.18
2019-05-23T00:55:31.715Z,19.85
2019-05-23T00:58:04.681Z,16.50
2019-05-23T01:00:36.079Z,11.08
2019-05-23T01:03:08.276Z,13.30
2019-05-23T01:05:39.781Z,16.17
2019-05-23T01:08:14.565Z,17.20
2019-05-23T01:10:46.772Z,14.03
2019-05-23T01:13:18.057Z,5.87
2019-05-23T01:15:50.580Z,8.98
2019-05-23T01:18:22.261Z,9.15
2019-05-23T01:21:01.176Z,10.72
2019-05-23T01:23:34.006Z,7.87
2019-05-23T01:26:06.259Z,9.85
2019-05-23T01:28:38.706Z,10.05
2019-05-23T01:31:14.436Z,24.67
2019-05-23T01:33:47.001Z,9.33
2019-05-23T01:36:19.297Z,11.18
2019-05-23T01:38:50.867Z,7.92
2019-05-23T01:41:23.983Z,9.43
2019-05-23T01:43:56.104Z,7.83
2019-05-23T01:46:28.597Z,10.03
2019-05-23T01:49:00.599Z,9.85
2019-05-23T01:51:32.435Z,12.40
2019-05-23T01:54:04.914Z,7.80
2019-05-23T01:56:37.188Z,8.33
2019-05-23T01:59:09.830Z,11.75
2019-05-23T02:01:42.221Z,11.18
2019-05-23T02:04:13.639Z,15.40
2019-05-23T02:06:45.364Z,13.72
2019-05-23T02:09:17.808Z,13.75
2019-05-23T02:11:50.503Z,9.83
2019-05-23T02:14:22.866Z,9.48
2019-05-23T02:16:55.055Z,15.03
2019-05-23T02:19:26.683Z,14.73
2019-05-23T02:21:58.490Z,10.53
2019-05-23T02:24:31.227Z,8.33
2019-05-23T02:27:03.563Z,7.00
2019-05-23T02:29:34.919Z,9.38
2019-05-23T02:32:07.364Z,13.35
2019-05-23T02:34:39.110Z,9.60
2019-05-23T02:37:28.115Z,9.33
2019-05-23T02:40:01.005Z,8.08
2019-05-23T02:42:36.641Z,12.40
2019-05-23T02:45:10.313Z,12.40
2019-05-23T02:47:43.499Z,10.43
2019-05-23T02:50:33.468Z,12.47
2019-05-23T02:53:06.466Z,12.00
2019-05-23T02:55:39.778Z,11.00
2019-05-23T02:58:17.077Z,12.43
2019-05-23T03:00:56.987Z,15.85
2019-05-23T03:03:29.969Z,11.33
2019-05-23T03:06:05.706Z,10.28
2019-05-23T03:08:38.711Z,14.30
2019-05-23T03:11:28.178Z,9.60
2019-05-23T03:14:01.329Z,12.05
2019-05-23T03:16:33.062Z,16.90
2019-05-23T03:19:20.196Z,15.03
2019-05-23T03:21:52.616Z,11.70
2019-05-23T03:24:25.563Z,10.72
2019-05-23T03:27:04.962Z,10.10
2019-05-23T03:29:37.311Z,14.63
2019-05-23T03:32:12.997Z,12.73
2019-05-23T03:34:46.335Z,8.83
2019-05-23T03:37:18.161Z,9.98
2019-05-23T03:39:50.743Z,9.13
2019-05-23T03:42:23.714Z,11.38
2019-05-23T03:44:56.104Z,11.97
2019-05-23T03:47:28.889Z,13.35
2019-05-23T03:50:01.683Z,12.15
2019-05-23T03:52:33.250Z,9.85
2019-05-23T03:55:05.211Z,13.20
2019-05-23T03:57:38.317Z,12.03
2019-05-23T04:00:15.344Z,13.13
2019-05-23T04:02:47.753Z,14.23
2019-05-23T04:05:20.278Z,28.67
2019-05-23T04:07:51.531Z,17.50
2019-05-23T04:10:23.126Z,11.15
2019-05-23T04:12:57.376Z,12.70
2019-05-23T04:15:30.239Z,11.28
2019-05-23T04:18:01.869Z,9.50
2019-05-23T04:20:34.253Z,11.97
2019-05-23T04:23:07.478Z,12.63
2019-05-23T04:25:39.341Z,13.18
2019-05-23T04:28:11.091Z,11.65
2019-05-23T04:30:42.943Z,10.08
2019-05-23T04:33:15.025Z,9.93
2019-05-23T04:35:46.858Z,9.53
2019-05-23T04:38:18.664Z,11.40
2019-05-23T04:40:50.376Z,12.33
2019-05-23T04:43:22.383Z,12.37
2019-05-23T04:45:54.272Z,11.85
2019-05-23T04:48:26.392Z,10.18
2019-05-23T04:51:00.078Z,15.85
2019-05-23T04:53:31.186Z,13.78
2019-05-23T04:56:02.629Z,9.10
2019-05-23T04:58:34.703Z,9.93
2019-05-23T05:01:06.511Z,9.95
2019-05-23T05:03:38.324Z,8.35
2019-05-23T05:06:10.174Z,16.65
2019-05-23T05:08:42.015Z,13.28
2019-05-23T05:11:13.835Z,14.28
2019-05-23T05:13:45.789Z,13.55
2019-05-23T05:16:17.797Z,12.78
2019-05-23T05:18:49.686Z,7.87
2019-05-23T05:21:21.238Z,8.48
2019-05-23T05:23:53.259Z,12.58
2019-05-23T05:26:25.632Z,12.75
2019-05-23T05:28:57.400Z,8.98
2019-05-23T05:31:29.235Z,13.18
2019-05-23T05:34:01.073Z,9.73
2019-05-23T05:36:32.546Z,11.63
2019-05-23T05:39:04.817Z,14.25
2019-05-23T05:41:36.927Z,12.88
2019-05-23T05:44:11.459Z,11.53
2019-05-23T05:46:41.402Z,12.88
2019-05-23T05:49:13.967Z,9.68
2019-05-23T05:51:45.950Z,13.20
2019-05-23T05:54:17.875Z,10.60
2019-05-23T05:56:49.502Z,10.32
2019-05-23T05:59:21.163Z,9.83
2019-05-23T06:01:53.702Z,12.60
2019-05-23T06:04:25.741Z,10.05
2019-05-23T06:06:58.437Z,10.05
2019-05-23T06:09:31.548Z,21.00
2019-05-23T06:12:03.470Z,16.55
2019-05-23T06:14:35.549Z,12.28
2019-05-23T06:17:08.447Z,22.50
2019-05-23T06:19:40.589Z,11.08
2019-05-23T06:22:13.272Z,9.75
2019-05-23T06:24:50.387Z,10.08
2019-05-23T06:27:19.024Z,10.60
2019-05-23T06:29:51.004Z,14.07
2019-05-23T06:32:23.769Z,14.07
2019-05-23T06:34:56.947Z,18.62
2019-05-23T06:37:33.858Z,9.95
2019-05-23T06:40:03.063Z,13.75
2019-05-23T06:42:34.927Z,10.32
2019-05-23T06:45:07.869Z,13.78
2019-05-23T06:47:40.804Z,10.98
2019-05-23T06:50:15.151Z,12.13
2019-05-23T06:52:46.642Z,14.68
2019-05-23T06:55:18.223Z,11.97
2019-05-23T06:57:49.996Z,13.45
2019-05-23T07:00:25.168Z,11.70
2019-05-23T07:02:57.006Z,14.95
2019-05-23T07:05:31.701Z,9.58
2019-05-23T07:08:03.655Z,13.93
2019-05-23T07:10:34.946Z,15.10
2019-05-23T07:13:06.622Z,11.90
2019-05-23T07:15:40.379Z,15.20
2019-05-23T07:18:11.916Z,8.80
2019-05-23T07:20:43.825Z,13.32
2019-05-23T07:23:15.195Z,11.53
2019-05-23T07:25:48.481Z,9.05
2019-05-23T07:28:19.608Z,9.83
2019-05-23T07:30:51.798Z,9.73
2019-05-23T07:33:23.509Z,16.37
2019-05-23T07:35:55.009Z,10.50
2019-05-23T07:38:27.229Z,11.12
2019-05-23T07:40:59.857Z,11.93
2019-05-23T07:43:31.281Z,15.00
2019-05-23T07:46:03.553Z,9.65
2019-05-23T07:48:35.551Z,10.32
2019-05-23T07:51:07.258Z,12.28
2019-05-23T07:53:46.096Z,11.95
2019-05-23T07:56:21.144Z,10.48
2019-05-23T07:58:52.312Z,12.03
2019-05-23T08:01:27.929Z,8.80
2019-05-23T08:03:59.352Z,11.38
2019-05-23T08:06:31.325Z,10.08
2019-05-23T08:09:02.963Z,7.30
2019-05-23T08:11:34.816Z,11.83
2019-05-23T08:14:10.206Z,11.78
2019-05-23T08:16:56.615Z,12.00
2019-05-23T08:19:28.637Z,8.40
2019-05-23T08:22:00.379Z,10.65
2019-05-23T08:24:35.234Z,9.03
2019-05-23T08:27:07.663Z,9.35
2019-05-23T08:29:39.440Z,15.60
2019-05-23T08:32:18.062Z,11.48
2019-05-23T08:34:51.433Z,11.10
2019-05-23T08:37:22.150Z,8.90
2019-05-23T08:39:53.594Z,10.65
2019-05-23T08:42:28.798Z,14.90
2019-05-23T08:45:00.244Z,13.62
2019-05-23T08:47:32.023Z,18.40
2019-05-23T08:50:03.810Z,17.90
2019-05-23T08:52:35.546Z,15.50
2019-05-23T08:55:09.683Z,11.18
2019-05-23T08:57:41.430Z,8.30
2019-05-23T09:00:13.830Z,9.33
2019-05-23T09:02:45.518Z,14.83
2019-05-23T09:05:18.434Z,13.90
2019-05-23T09:07:50.391Z,11.85
2019-05-23T09:10:22.564Z,11.38
2019-05-23T09:12:54.351Z,6.85
2019-05-23T09:15:31.535Z,10.63
2019-05-23T09:18:04.151Z,8.43
2019-05-23T09:20:35.879Z,8.58
2019-05-23T09:23:07.519Z,8.10
2019-05-23T09:25:39.112Z,9.10
2019-05-23T09:28:11.379Z,7.60
2019-05-23T09:30:43.104Z,9.28
2019-05-23T09:33:15.402Z,7.08
2019-05-23T09:35:48.047Z,9.73
2019-05-23T09:38:19.679Z,13.50
2019-05-23T09:40:51.575Z,5.22
2019-05-23T09:43:23.576Z,6.15
2019-05-23T09:45:55.171Z,7.03
2019-05-23T09:48:26.928Z,9.55
2019-05-23T09:50:58.819Z,6.37
2019-05-23T09:53:30.718Z,8.73
2019-05-23T09:56:02.612Z,9.43
2019-05-23T09:58:34.316Z,7.75
2019-05-23T10:01:06.311Z,15.43
2019-05-23T10:03:37.928Z,10.40
2019-05-23T10:06:09.915Z,11.00
2019-05-23T10:08:41.501Z,13.20
2019-05-23T10:11:13.574Z,15.30
2019-05-23T10:13:44.842Z,16.45
2019-05-23T10:16:16.967Z,12.40
2019-05-23T10:18:48.949Z,14.05
2019-05-23T10:21:21.080Z,16.23
2019-05-23T10:23:52.673Z,14.45
2019-05-23T10:26:25.014Z,12.90
2019-05-23T10:28:56.886Z,17.30
2019-05-23T10:31:28.866Z,11.65
2019-05-23T10:34:00.446Z,9.85
2019-05-23T10:36:32.192Z,7.35
2019-05-23T10:39:03.931Z,15.00
2019-05-23T10:41:35.423Z,5.70
2019-05-23T10:44:08.117Z,16.07
2019-05-23T10:46:40.170Z,17.50
2019-05-23T10:49:12.059Z,15.78
2019-05-23T10:51:43.585Z,26.12
2019-05-23T10:54:15.521Z,23.30
2019-05-23T10:56:47.278Z,12.73
2019-05-23T10:59:18.743Z,9.93
2019-05-23T11:01:50.721Z,8.98
2019-05-23T11:04:22.362Z,8.43
2019-05-23T11:06:54.135Z,15.18
2019-05-23T11:09:37.502Z,10.80
2019-05-23T11:11:59.109Z,11.25
2019-05-23T11:14:31.150Z,9.55
2019-05-23T11:17:03.243Z,8.30
2019-05-23T11:19:35.749Z,10.75
2019-05-23T11:22:08.997Z,7.08
2019-05-23T11:24:40.944Z,8.95
2019-05-23T11:27:12.708Z,10.25
2019-05-23T11:29:44.274Z,10.82
2019-05-23T11:32:20.001Z,14.95
2019-05-23T11:34:50.018Z,13.85
2019-05-23T11:37:22.314Z,9.28
2019-05-23T11:39:53.825Z,5.90
2019-05-23T11:42:25.955Z,9.00
2019-05-23T11:44:57.486Z,14.55
2019-05-23T11:47:31.946Z,10.58
2019-05-23T11:50:02.373Z,15.38
2019-05-23T11:52:34.342Z,13.88
2019-05-23T11:55:07.330Z,8.60
2019-05-23T11:57:39.464Z,26.20
2019-05-23T12:00:12.240Z,7.75
2019-05-23T12:02:45.454Z,5.17
2019-05-23T12:05:18.796Z,6.67
2019-05-23T12:07:50.857Z,4.92
2019-05-23T12:10:22.851Z,7.92
2019-05-23T12:12:54.924Z,6.95
2019-05-23T12:15:31.022Z,5.95
2019-05-23T12:18:03.149Z,6.53
2019-05-23T12:20:35.042Z,3.87
2019-05-23T12:23:10.776Z,3.47
2019-05-23T12:25:39.693Z,5.58
2019-05-23T12:28:12.393Z,3.52
2019-05-23T12:30:44.034Z,5.00
2019-05-23T12:33:15.637Z,5.05
2019-05-23T12:35:48.688Z,6.42
2019-05-23T12:38:20.281Z,4.80
2019-05-23T12:40:52.136Z,5.78
2019-05-23T12:43:23.705Z,2.90
2019-05-23T12:45:55.796Z,5.53
2019-05-23T12:48:34.914Z,5.28
2019-05-23T12:51:08.370Z,6.78
2019-05-23T12:53:39.952Z,6.17
2019-05-23T12:56:11.988Z,4.70
2019-05-23T12:58:44.313Z,6.58
2019-05-23T13:01:17.470Z,3.62
2019-05-23T13:03:49.163Z,7.90
2019-05-23T13:06:21.089Z,4.60
2019-05-23T13:08:53.271Z,4.75
2019-05-23T13:11:25.343Z,4.00
2019-05-23T13:13:56.798Z,5.97
2019-05-23T13:16:28.668Z,8.13
2019-05-23T13:19:00.420Z,9.23
2019-05-23T13:21:34.563Z,4.65
2019-05-23T13:24:06.107Z,4.50
2019-05-23T13:26:37.548Z,6.40
2019-05-23T13:29:09.311Z,5.00
2019-05-23T13:31:41.377Z,6.92
2019-05-23T13:34:13.245Z,4.72
2019-05-23T13:36:44.962Z,4.40
2019-05-23T13:39:16.706Z,5.08
2019-05-23T13:41:48.324Z,4.28
2019-05-23T13:44:33.031Z,7.10
2019-05-23T13:46:53.078Z,5.28
2019-05-23T13:49:25.134Z,5.22
2019-05-23T13:51:57.289Z,5.83
2019-05-23T13:54:29.362Z,5.83
2019-05-23T13:57:01.698Z,4.53
2019-05-23T13:59:33.606Z,4.37
2019-05-23T14:02:06.679Z,5.10
2019-05-23T14:04:38.557Z,8.98
2019-05-23T14:07:11.962Z,6.55
2019-05-23T14:09:43.677Z,6.50
2019-05-23T14:12:22.915Z,5.92
2019-05-23T14:14:48.830Z,6.65
2019-05-23T14:17:38.871Z,7.22
2019-05-23T14:20:10.959Z,5.42
2019-05-23T14:22:44.426Z,6.03
2019-05-23T14:25:16.229Z,5.60
2019-05-23T14:27:55.230Z,8.53
2019-05-23T14:30:37.511Z,8.30
2019-05-23T14:33:11.023Z,6.20
2019-05-23T14:35:47.059Z,7.30
2019-05-23T14:38:30.374Z,6.25
2019-05-23T14:40:52.743Z,8.98
2019-05-23T14:43:31.722Z,5.92
2019-05-23T14:46:11.406Z,7.25
2019-05-23T14:49:00.268Z,8.08
2019-05-23T14:51:33.214Z,6.28
2019-05-23T14:54:23.142Z,8.65
2019-05-23T14:56:54.796Z,6.42
2019-05-23T14:59:26.819Z,7.42
2019-05-23T15:01:59.423Z,9.65
2019-05-23T15:04:31.500Z,7.40
2019-05-23T15:07:03.199Z,8.85
2019-05-23T15:09:35.190Z,9.08
2019-05-23T15:12:07.501Z,7.90
2019-05-23T15:14:39.503Z,8.33
2019-05-23T15:17:11.261Z,9.35
2019-05-23T15:19:45.293Z,10.82
2019-05-23T15:22:16.307Z,5.72
2019-05-23T15:24:48.538Z,7.47
2019-05-23T15:27:20.239Z,6.35
2019-05-23T15:29:52.235Z,7.28
2019-05-23T15:32:24.047Z,7.10
2019-05-23T15:34:56.071Z,6.58
2019-05-23T15:37:27.999Z,7.83
2019-05-23T15:39:59.870Z,6.30
2019-05-23T15:42:31.619Z,7.20
2019-05-23T15:45:03.789Z,7.67
2019-05-23T15:47:36.717Z,13.45
2019-05-23T15:50:11.849Z,11.93
2019-05-23T15:52:44.943Z,10.45
2019-05-23T15:55:18.406Z,9.98
2019-05-23T15:57:54.050Z,9.18
2019-05-23T16:00:42.315Z,15.83
2019-05-23T16:03:31.786Z,11.33
2019-05-23T16:06:05.436Z,8.48
2019-05-23T16:08:36.997Z,16.25
2019-05-23T16:11:08.690Z,10.55
2019-05-23T16:13:40.539Z,10.75
2019-05-23T16:16:12.428Z,10.60
2019-05-23T16:18:43.916Z,14.68
2019-05-23T16:21:16.273Z,11.22
2019-05-23T16:23:47.956Z,14.75
2019-05-23T16:26:22.191Z,13.80
2019-05-23T16:28:53.645Z,9.40
2019-05-23T16:31:25.460Z,16.15
2019-05-23T16:33:57.092Z,13.58
2019-05-23T16:36:29.123Z,12.43
2019-05-23T16:39:00.714Z,12.40
2019-05-23T16:41:32.555Z,12.03
2019-05-23T16:44:04.284Z,11.65
2019-05-23T16:46:36.037Z,11.38
2019-05-23T16:49:07.667Z,12.13
2019-05-23T16:51:39.474Z,13.38
2019-05-23T16:54:11.503Z,10.80
2019-05-23T16:56:44.664Z,14.33
2019-05-23T16:59:23.715Z,11.28
2019-05-23T17:02:08.872Z,10.68
2019-05-23T17:04:47.607Z,12.13
2019-05-23T17:07:36.342Z,9.65
2019-05-23T17:10:16.282Z,11.57
2019-05-23T17:12:52.302Z,11.48
2019-05-23T17:15:37.400Z,8.28
2019-05-23T17:18:26.110Z,12.15
2019-05-23T17:20:58.963Z,9.68
2019-05-23T17:23:50.460Z,11.60
2019-05-23T17:26:23.422Z,8.40
2019-05-23T17:28:56.949Z,7.87
2019-05-23T17:31:32.599Z,9.18
2019-05-23T17:34:04.729Z,8.18
2019-05-23T17:36:36.436Z,10.68
2019-05-23T17:39:10.323Z,7.03
2019-05-23T17:41:42.749Z,10.05
2019-05-23T17:44:14.591Z,11.50
2019-05-23T17:46:46.166Z,14.15
2019-05-23T17:49:18.038Z,10.32
2019-05-23T17:51:49.749Z,10.40
2019-05-23T17:54:21.659Z,10.38
2019-05-23T17:56:53.340Z,13.62
2019-05-23T17:59:25.357Z,13.95
2019-05-23T18:01:57.215Z,21.12
2019-05-23T18:04:29.726Z,15.58
2019-05-23T18:07:01.479Z,11.55
2019-05-23T18:09:34.086Z,16.40
2019-05-23T18:12:05.847Z,11.12
2019-05-23T18:14:38.380Z,11.50
2019-05-23T18:17:10.707Z,9.20
2019-05-23T18:19:42.739Z,11.18
2019-05-23T18:22:15.465Z,7.72
2019-05-23T18:24:47.588Z,8.88
2019-05-23T18:27:19.322Z,9.48
2019-05-23T18:29:53.437Z,12.43
2019-05-23T18:32:26.308Z,7.97
2019-05-23T18:34:58.240Z,7.33
2019-05-23T18:37:29.679Z,9.88
2019-05-23T18:40:01.378Z,10.18
2019-05-23T18:42:33.193Z,11.63
2019-05-23T18:45:06.575Z,10.38
2019-05-23T18:47:42.072Z,9.40
2019-05-23T18:50:14.711Z,16.87
2019-05-23T18:52:46.568Z,13.05
2019-05-23T18:55:18.654Z,13.55
2019-05-23T18:57:50.434Z,9.53
2019-05-23T19:00:24.470Z,9.25
2019-05-23T19:02:56.471Z,8.53
2019-05-23T19:05:28.952Z,10.32
2019-05-23T19:08:00.528Z,12.60
2019-05-23T19:10:32.372Z,14.18
2019-05-23T19:13:03.881Z,10.10
2019-05-23T19:15:35.838Z,10.58
2019-05-23T19:18:08.059Z,13.88
2019-05-23T19:20:40.635Z,17.35
2019-05-23T19:23:12.596Z,9.68
2019-05-23T19:25:44.941Z,10.93
2019-05-23T19:28:16.651Z,9.60
2019-05-23T19:30:49.152Z,12.68
2019-05-23T19:33:20.993Z,10.53
2019-05-23T19:35:53.044Z,13.70
2019-05-23T19:38:24.827Z,11.18
2019-05-23T19:40:57.084Z,14.47
2019-05-23T19:43:28.864Z,10.98
2019-05-23T19:46:00.783Z,11.83
2019-05-23T19:48:32.522Z,14.30
2019-05-23T19:51:05.302Z,14.58
2019-05-23T19:53:37.640Z,12.37
2019-05-23T19:56:10.135Z,15.72
2019-05-23T19:58:41.791Z,10.40
2019-05-23T20:01:13.670Z,10.15
2019-05-23T20:03:45.417Z,9.58
2019-05-23T20:06:17.953Z,11.38
2019-05-23T20:08:50.760Z,15.18
2019-05-23T20:11:22.698Z,11.35
2019-05-23T20:13:54.201Z,9.95
2019-05-23T20:16:25.770Z,11.22
2019-05-23T20:18:57.638Z,11.93
2019-05-23T20:21:29.551Z,16.82
2019-05-23T20:24:01.303Z,17.67
2019-05-23T20:26:32.952Z,15.23
2019-05-23T20:29:04.885Z,12.82
2019-05-23T20:31:36.936Z,9.80
2019-05-23T20:34:08.374Z,12.78
2019-05-23T20:36:40.141Z,17.95
2019-05-23T20:39:12.016Z,11.48
2019-05-23T20:41:43.806Z,11.40
2019-05-23T20:44:15.462Z,15.23
2019-05-23T20:46:47.437Z,12.78
2019-05-23T20:49:19.185Z,12.33
2019-05-23T20:51:51.368Z,11.20
2019-05-23T20:54:22.902Z,11.97
2019-05-23T20:56:54.609Z,14.30
2019-05-23T20:59:26.407Z,12.58
2019-05-23T21:01:58.263Z,13.10
2019-05-23T21:04:30.261Z,21.45
2019-05-23T21:07:01.802Z,16.17
2019-05-23T21:09:34.042Z,20.70
2019-05-23T21:12:05.728Z,19.73
2019-05-23T21:14:37.541Z,16.00
2019-05-23T21:17:09.495Z,18.07
2019-05-23T21:19:41.126Z,16.07
2019-05-23T21:22:12.742Z,16.75
2019-05-23T21:24:44.532Z,24.82
2019-05-23T21:27:16.176Z,27.55
2019-05-23T21:29:47.751Z,20.23
2019-05-23T21:32:19.572Z,19.77
2019-05-23T21:34:53.319Z,20.82
2019-05-23T21:37:25.098Z,15.50
2019-05-23T21:39:56.553Z,20.55
2019-05-23T21:42:28.375Z,16.93
2019-05-23T21:44:59.962Z,18.52
2019-05-23T21:47:31.777Z,21.87
2019-05-23T21:50:03.575Z,17.95
2019-05-23T21:52:35.424Z,19.48
2019-05-23T21:55:07.336Z,20.68
2019-05-23T21:57:38.777Z,20.20
2019-05-23T22:00:11.849Z,16.07
2019-05-23T22:02:43.431Z,18.20
2019-05-23T22:05:16.560Z,15.45
2019-05-23T22:07:48.685Z,20.52
2019-05-23T22:10:20.455Z,22.25
2019-05-23T22:13:04.033Z,18.65
2019-05-23T22:15:38.426Z,21.48
2019-05-23T22:18:10.064Z,22.45
2019-05-23T22:20:41.538Z,24.10
2019-05-23T22:23:13.336Z,30.12
2019-05-23T22:25:45.119Z,31.23
2019-05-23T22:28:17.172Z,32.55
2019-05-23T22:30:48.947Z,25.68
2019-05-23T22:33:22.140Z,26.35
2019-05-23T22:35:54.369Z,28.42
2019-05-23T22:38:26.147Z,35.17
2019-05-23T22:40:57.948Z,30.43
2019-05-23T22:43:29.658Z,29.35
2019-05-23T22:46:01.262Z,35.25
2019-05-23T22:48:32.834Z,29.77
2019-05-23T22:51:04.493Z,31.87
2019-05-23T22:53:36.115Z,25.70
2019-05-23T22:56:07.823Z,31.68
2019-05-23T22:58:39.608Z,30.82
2019-05-23T23:01:11.421Z,25.97
2019-05-23T23:03:43.435Z,28.40
2019-05-23T23:06:15.695Z,41.25
2019-05-23T23:08:47.822Z,28.98
2019-05-23T23:11:19.810Z,27.00
2019-05-23T23:13:51.803Z,33.13
2019-05-23T23:16:23.622Z,35.40
2019-05-23T23:18:55.422Z,28.73
2019-05-23T23:21:27.250Z,34.53
2019-05-23T23:23:59.126Z,33.78
2019-05-23T23:26:30.659Z,26.60
2019-05-23T23:29:02.234Z,28.70
2019-05-23T23:31:34.107Z,22.30
2019-05-23T23:34:05.764Z,31.37
2019-05-23T23:36:37.731Z,31.65
2019-05-23T23:39:09.370Z,31.05
2019-05-23T23:41:40.861Z,32.30
2019-05-23T23:44:13.041Z,30.55
2019-05-23T23:47:01.988Z,26.82
2019-05-23T23:49:51.522Z,27.50
2019-05-23T23:52:40.681Z,24.87
2019-05-23T23:55:31.065Z,21.82
2019-05-23T23:58:01.567Z,24.98
